sensor_id;sensor_type;location;lat;lon;timestamp;P1;durP1;ratioP1;P2;durP2;ratioP2
8982;SDS011;20979;59.850;10.660;2023-05-13T00:01:55;4.67;;;4.17;;
8982;SDS011;20979;59.850;10.660;2023-05-13T00:04:22;4.90;;;4.40;;
8982;SDS011;20979;59.850;10.660;2023-05-13T00:06:49;5.40;;;4.47;;
8982;SDS011;20979;59.850;10.660;2023-05-13T00:09:32;6.10;;;4.60;;
8982;SDS011;20979;59.850;10.660;2023-05-13T00:12:00;6.00;;;4.60;;
8982;SDS011;20979;59.850;10.660;2023-05-13T00:14:28;5.03;;;4.53;;
8982;SDS011;20979;59.850;10.660;2023-05-13T00:16:56;6.37;;;4.27;;
8982;SDS011;20979;59.850;10.660;2023-05-13T00:19:29;7.93;;;4.50;;
8982;SDS011;20979;59.850;10.660;2023-05-13T00:22:05;8.90;;;4.70;;
8982;SDS011;20979;59.850;10.660;2023-05-13T00:27:28;6.83;;;4.83;;
8982;SDS011;20979;59.850;10.660;2023-05-13T00:29:57;5.20;;;4.70;;
8982;SDS011;20979;59.850;10.660;2023-05-13T00:32:25;4.73;;;4.30;;
8982;SDS011;20979;59.850;10.660;2023-05-13T00:34:52;5.20;;;4.30;;
8982;SDS011;20979;59.850;10.660;2023-05-13T00:37:26;4.40;;;4.00;;
8982;SDS011;20979;59.850;10.660;2023-05-13T00:39:54;4.63;;;4.33;;
8982;SDS011;20979;59.850;10.660;2023-05-13T00:42:21;6.43;;;4.50;;
8982;SDS011;20979;59.850;10.660;2023-05-13T00:44:50;5.10;;;4.70;;
8982;SDS011;20979;59.850;10.660;2023-05-13T00:47:22;4.73;;;4.40;;
8982;SDS011;20979;59.850;10.660;2023-05-13T00:49:52;5.13;;;4.73;;
8982;SDS011;20979;59.850;10.660;2023-05-13T00:52:19;4.87;;;4.47;;
8982;SDS011;20979;59.850;10.660;2023-05-13T00:54:47;5.63;;;4.50;;
8982;SDS011;20979;59.850;10.660;2023-05-13T00:57:14;4.53;;;4.17;;
8982;SDS011;20979;59.850;10.660;2023-05-13T00:59:42;4.80;;;4.30;;
8982;SDS011;20979;59.850;10.660;2023-05-13T01:02:12;5.10;;;4.60;;
8982;SDS011;20979;59.850;10.660;2023-05-13T01:04:43;4.87;;;4.47;;
8982;SDS011;20979;59.850;10.660;2023-05-13T01:07:12;6.00;;;4.90;;
8982;SDS011;20979;59.850;10.660;2023-05-13T01:09:44;5.30;;;4.90;;
8982;SDS011;20979;59.850;10.660;2023-05-13T01:12:15;5.43;;;4.57;;
8982;SDS011;20979;59.850;10.660;2023-05-13T01:14:47;6.30;;;4.80;;
8982;SDS011;20979;59.850;10.660;2023-05-13T01:17:17;7.03;;;4.50;;
8982;SDS011;20979;59.850;10.660;2023-05-13T01:19:48;5.73;;;4.57;;
8982;SDS011;20979;59.850;10.660;2023-05-13T01:22:19;6.53;;;4.80;;
8982;SDS011;20979;59.850;10.660;2023-05-13T01:24:47;5.13;;;4.60;;
8982;SDS011;20979;59.850;10.660;2023-05-13T01:27:15;5.00;;;4.50;;
8982;SDS011;20979;59.850;10.660;2023-05-13T01:29:48;6.10;;;4.80;;
8982;SDS011;20979;59.850;10.660;2023-05-13T01:32:16;5.33;;;4.83;;
8982;SDS011;20979;59.850;10.660;2023-05-13T01:34:44;5.03;;;4.63;;
8982;SDS011;20979;59.850;10.660;2023-05-13T01:37:12;4.60;;;4.20;;
8982;SDS011;20979;59.850;10.660;2023-05-13T01:39:50;4.77;;;4.17;;
8982;SDS011;20979;59.850;10.660;2023-05-13T01:42:25;4.90;;;4.30;;
8982;SDS011;20979;59.850;10.660;2023-05-13T01:44:53;5.47;;;4.97;;
8982;SDS011;20979;59.850;10.660;2023-05-13T01:47:22;4.90;;;4.40;;
8982;SDS011;20979;59.850;10.660;2023-05-13T01:49:49;4.77;;;4.30;;
8982;SDS011;20979;59.850;10.660;2023-05-13T01:52:16;4.57;;;4.10;;
8982;SDS011;20979;59.850;10.660;2023-05-13T01:54:44;4.63;;;4.20;;
8982;SDS011;20979;59.850;10.660;2023-05-13T01:57:12;4.90;;;4.50;;
8982;SDS011;20979;59.850;10.660;2023-05-13T01:59:40;4.60;;;4.20;;
8982;SDS011;20979;59.850;10.660;2023-05-13T02:02:07;4.73;;;4.30;;
8982;SDS011;20979;59.850;10.660;2023-05-13T02:04:34;5.20;;;4.70;;
8982;SDS011;20979;59.850;10.660;2023-05-13T02:07:02;5.73;;;4.30;;
8982;SDS011;20979;59.850;10.660;2023-05-13T02:09:29;5.70;;;4.23;;
8982;SDS011;20979;59.850;10.660;2023-05-13T02:11:57;5.10;;;4.60;;
8982;SDS011;20979;59.850;10.660;2023-05-13T02:14:28;5.13;;;4.73;;
8982;SDS011;20979;59.850;10.660;2023-05-13T02:16:56;4.60;;;4.20;;
8982;SDS011;20979;59.850;10.660;2023-05-13T02:19:23;5.10;;;4.70;;
8982;SDS011;20979;59.850;10.660;2023-05-13T02:21:51;4.83;;;4.43;;
8982;SDS011;20979;59.850;10.660;2023-05-13T02:24:18;4.63;;;4.30;;
8982;SDS011;20979;59.850;10.660;2023-05-13T02:26:46;4.57;;;4.27;;
8982;SDS011;20979;59.850;10.660;2023-05-13T02:29:13;5.57;;;4.47;;
8982;SDS011;20979;59.850;10.660;2023-05-13T02:31:42;4.47;;;4.07;;
8982;SDS011;20979;59.850;10.660;2023-05-13T02:34:09;5.03;;;4.50;;
8982;SDS011;20979;59.850;10.660;2023-05-13T02:36:37;4.63;;;4.23;;
8982;SDS011;20979;59.850;10.660;2023-05-13T02:39:04;5.03;;;4.20;;
8982;SDS011;20979;59.850;10.660;2023-05-13T02:41:33;4.50;;;4.20;;
8982;SDS011;20979;59.850;10.660;2023-05-13T02:44:01;6.57;;;4.33;;
8982;SDS011;20979;59.850;10.660;2023-05-13T02:46:28;4.17;;;3.83;;
8982;SDS011;20979;59.850;10.660;2023-05-13T02:48:57;4.53;;;4.13;;
8982;SDS011;20979;59.850;10.660;2023-05-13T02:51:24;5.27;;;4.63;;
8982;SDS011;20979;59.850;10.660;2023-05-13T02:53:52;5.90;;;4.30;;
8982;SDS011;20979;59.850;10.660;2023-05-13T02:56:19;4.70;;;4.30;;
8982;SDS011;20979;59.850;10.660;2023-05-13T02:58:46;5.33;;;4.57;;
8982;SDS011;20979;59.850;10.660;2023-05-13T03:01:14;5.20;;;4.70;;
8982;SDS011;20979;59.850;10.660;2023-05-13T03:03:41;4.97;;;4.57;;
8982;SDS011;20979;59.850;10.660;2023-05-13T03:06:10;5.20;;;4.70;;
8982;SDS011;20979;59.850;10.660;2023-05-13T03:08:37;5.60;;;5.03;;
8982;SDS011;20979;59.850;10.660;2023-05-13T03:11:04;5.10;;;4.70;;
8982;SDS011;20979;59.850;10.660;2023-05-13T03:13:32;5.93;;;4.80;;
8982;SDS011;20979;59.850;10.660;2023-05-13T03:15:59;6.20;;;4.80;;
8982;SDS011;20979;59.850;10.660;2023-05-13T03:18:26;5.30;;;4.73;;
8982;SDS011;20979;59.850;10.660;2023-05-13T03:20:55;5.80;;;5.20;;
8982;SDS011;20979;59.850;10.660;2023-05-13T03:23:24;5.47;;;4.97;;
8982;SDS011;20979;59.850;10.660;2023-05-13T03:25:51;5.33;;;4.93;;
8982;SDS011;20979;59.850;10.660;2023-05-13T03:28:19;5.63;;;5.13;;
8982;SDS011;20979;59.850;10.660;2023-05-13T03:30:46;5.80;;;4.73;;
8982;SDS011;20979;59.850;10.660;2023-05-13T03:33:13;5.43;;;4.93;;
8982;SDS011;20979;59.850;10.660;2023-05-13T03:35:41;5.50;;;4.87;;
8982;SDS011;20979;59.850;10.660;2023-05-13T03:38:08;5.47;;;4.97;;
8982;SDS011;20979;59.850;10.660;2023-05-13T03:40:37;5.47;;;4.97;;
8982;SDS011;20979;59.850;10.660;2023-05-13T03:43:04;6.33;;;4.60;;
8982;SDS011;20979;59.850;10.660;2023-05-13T03:45:31;5.63;;;5.10;;
8982;SDS011;20979;59.850;10.660;2023-05-13T03:47:58;6.00;;;5.40;;
8982;SDS011;20979;59.850;10.660;2023-05-13T03:50:26;5.10;;;4.70;;
8982;SDS011;20979;59.850;10.660;2023-05-13T03:52:54;5.77;;;5.17;;
8982;SDS011;20979;59.850;10.660;2023-05-13T03:55:21;5.83;;;5.33;;
8982;SDS011;20979;59.850;10.660;2023-05-13T03:57:50;5.70;;;5.27;;
8982;SDS011;20979;59.850;10.660;2023-05-13T04:00:18;5.87;;;5.27;;
8982;SDS011;20979;59.850;10.660;2023-05-13T04:02:45;5.33;;;4.90;;
8982;SDS011;20979;59.850;10.660;2023-05-13T04:05:12;7.10;;;5.40;;
8982;SDS011;20979;59.850;10.660;2023-05-13T04:07:40;5.70;;;5.20;;
8982;SDS011;20979;59.850;10.660;2023-05-13T04:10:07;6.70;;;4.93;;
8982;SDS011;20979;59.850;10.660;2023-05-13T04:12:35;5.70;;;5.20;;
8982;SDS011;20979;59.850;10.660;2023-05-13T04:15:06;6.00;;;5.40;;
8982;SDS011;20979;59.850;10.660;2023-05-13T04:17:33;5.10;;;4.70;;
8982;SDS011;20979;59.850;10.660;2023-05-13T04:20:01;5.37;;;4.90;;
8982;SDS011;20979;59.850;10.660;2023-05-13T04:22:28;5.13;;;4.63;;
8982;SDS011;20979;59.850;10.660;2023-05-13T04:24:55;5.40;;;4.57;;
8982;SDS011;20979;59.850;10.660;2023-05-13T04:27:23;5.60;;;5.00;;
8982;SDS011;20979;59.850;10.660;2023-05-13T04:29:50;7.23;;;4.80;;
8982;SDS011;20979;59.850;10.660;2023-05-13T04:32:19;5.50;;;4.60;;
8982;SDS011;20979;59.850;10.660;2023-05-13T04:34:46;5.20;;;4.70;;
8982;SDS011;20979;59.850;10.660;2023-05-13T04:37:14;5.37;;;4.83;;
8982;SDS011;20979;59.850;10.660;2023-05-13T04:39:41;4.60;;;4.30;;
8982;SDS011;20979;59.850;10.660;2023-05-13T04:42:09;4.80;;;4.40;;
8982;SDS011;20979;59.850;10.660;2023-05-13T04:44:36;5.17;;;4.73;;
8982;SDS011;20979;59.850;10.660;2023-05-13T04:47:03;4.83;;;4.37;;
8982;SDS011;20979;59.850;10.660;2023-05-13T04:49:32;5.10;;;4.60;;
8982;SDS011;20979;59.850;10.660;2023-05-13T04:52:13;5.50;;;4.70;;
8982;SDS011;20979;59.850;10.660;2023-05-13T04:54:41;4.80;;;4.40;;
8982;SDS011;20979;59.850;10.660;2023-05-13T04:57:08;4.97;;;4.57;;
8982;SDS011;20979;59.850;10.660;2023-05-13T04:59:36;6.77;;;4.40;;
8982;SDS011;20979;59.850;10.660;2023-05-13T05:02:03;5.20;;;4.70;;
8982;SDS011;20979;59.850;10.660;2023-05-13T05:04:30;4.50;;;4.10;;
8982;SDS011;20979;59.850;10.660;2023-05-13T05:06:59;4.97;;;4.50;;
8982;SDS011;20979;59.850;10.660;2023-05-13T05:09:27;7.13;;;4.53;;
8982;SDS011;20979;59.850;10.660;2023-05-13T05:11:55;4.83;;;4.43;;
8982;SDS011;20979;59.850;10.660;2023-05-13T05:17:34;4.73;;;4.37;;
8982;SDS011;20979;59.850;10.660;2023-05-13T05:25:59;6.97;;;4.57;;
8982;SDS011;20979;59.850;10.660;2023-05-13T05:31:41;4.40;;;4.00;;
8982;SDS011;20979;59.850;10.660;2023-05-13T05:37:32;4.60;;;4.13;;
8982;SDS011;20979;59.850;10.660;2023-05-13T05:46:02;4.23;;;3.93;;
8982;SDS011;20979;59.850;10.660;2023-05-13T05:53:58;4.60;;;4.20;;
8982;SDS011;20979;59.850;10.660;2023-05-13T05:56:30;5.17;;;4.30;;
8982;SDS011;20979;59.850;10.660;2023-05-13T06:05:33;4.80;;;4.40;;
8982;SDS011;20979;59.850;10.660;2023-05-13T06:11:11;6.57;;;4.33;;
8982;SDS011;20979;59.850;10.660;2023-05-13T06:20:07;4.70;;;4.30;;
8982;SDS011;20979;59.850;10.660;2023-05-13T06:43:52;4.43;;;4.03;;
8982;SDS011;20979;59.850;10.660;2023-05-13T06:55:48;4.00;;;3.67;;
8982;SDS011;20979;59.850;10.660;2023-05-13T06:58:16;3.53;;;3.23;;
8982;SDS011;20979;59.850;10.660;2023-05-13T08:12:13;1.92;;;1.83;;
8982;SDS011;20979;59.850;10.660;2023-05-13T08:14:47;3.33;;;2.13;;
8982;SDS011;20979;59.850;10.660;2023-05-13T08:17:16;1.95;;;1.80;;
8982;SDS011;20979;59.850;10.660;2023-05-13T08:19:43;3.17;;;2.15;;
8982;SDS011;20979;59.850;10.660;2023-05-13T08:22:25;3.67;;;2.15;;
8982;SDS011;20979;59.850;10.660;2023-05-13T08:25:24;3.55;;;2.00;;
8982;SDS011;20979;59.850;10.660;2023-05-13T08:27:53;2.22;;;2.13;;
8982;SDS011;20979;59.850;10.660;2023-05-13T08:30:21;1.85;;;1.75;;
8982;SDS011;20979;59.850;10.660;2023-05-13T08:32:48;3.25;;;2.38;;
8982;SDS011;20979;59.850;10.660;2023-05-13T08:35:29;2.30;;;2.20;;
8982;SDS011;20979;59.850;10.660;2023-05-13T08:37:57;2.10;;;2.00;;
8982;SDS011;20979;59.850;10.660;2023-05-13T08:40:24;2.47;;;1.90;;
8982;SDS011;20979;59.850;10.660;2023-05-13T08:42:59;2.33;;;2.13;;
8982;SDS011;20979;59.850;10.660;2023-05-13T08:45:27;2.40;;;2.03;;
8982;SDS011;20979;59.850;10.660;2023-05-13T08:47:55;2.05;;;1.85;;
8982;SDS011;20979;59.850;10.660;2023-05-13T08:50:24;3.63;;;1.90;;
8982;SDS011;20979;59.850;10.660;2023-05-13T08:53:07;1.70;;;1.60;;
8982;SDS011;20979;59.850;10.660;2023-05-13T08:55:39;3.08;;;1.70;;
8982;SDS011;20979;59.850;10.660;2023-05-13T08:58:22;2.20;;;2.00;;
8982;SDS011;20979;59.850;10.660;2023-05-13T09:00:49;1.75;;;1.65;;
8982;SDS011;20979;59.850;10.660;2023-05-13T09:06:41;2.78;;;2.22;;
8982;SDS011;20979;59.850;10.660;2023-05-13T09:09:37;2.33;;;1.98;;
8982;SDS011;20979;59.850;10.660;2023-05-13T09:12:05;2.90;;;1.90;;
8982;SDS011;20979;59.850;10.660;2023-05-13T09:33:34;2.63;;;1.90;;
8982;SDS011;20979;59.850;10.660;2023-05-13T09:36:20;2.40;;;1.80;;
8982;SDS011;20979;59.850;10.660;2023-05-13T09:48:06;1.77;;;1.52;;
8982;SDS011;20979;59.850;10.660;2023-05-13T12:34:32;4.53;;;2.08;;
8982;SDS011;20979;59.850;10.660;2023-05-13T12:37:17;2.63;;;1.88;;
8982;SDS011;20979;59.850;10.660;2023-05-13T15:21:21;4.53;;;2.17;;
8982;SDS011;20979;59.850;10.660;2023-05-13T16:02:00;2.60;;;2.40;;
8982;SDS011;20979;59.850;10.660;2023-05-13T16:04:53;5.97;;;5.35;;
8982;SDS011;20979;59.850;10.660;2023-05-13T16:17:35;5.00;;;2.38;;
8982;SDS011;20979;59.850;10.660;2023-05-13T16:23:12;2.63;;;2.35;;
8982;SDS011;20979;59.850;10.660;2023-05-13T16:25:46;9.82;;;7.40;;
8982;SDS011;20979;59.850;10.660;2023-05-13T16:28:13;11.98;;;8.82;;
8982;SDS011;20979;59.850;10.660;2023-05-13T16:30:41;23.42;;;18.15;;
8982;SDS011;20979;59.850;10.660;2023-05-13T16:33:13;6.95;;;4.32;;
8982;SDS011;20979;59.850;10.660;2023-05-13T16:35:42;8.23;;;3.53;;
8982;SDS011;20979;59.850;10.660;2023-05-13T16:38:10;5.93;;;5.43;;
8982;SDS011;20979;59.850;10.660;2023-05-13T16:53:03;4.10;;;2.90;;
8982;SDS011;20979;59.850;10.660;2023-05-13T16:55:33;2.60;;;2.40;;
8982;SDS011;20979;59.850;10.660;2023-05-13T17:28:08;4.45;;;2.50;;
8982;SDS011;20979;59.850;10.660;2023-05-13T17:30:46;5.25;;;2.20;;
8982;SDS011;20979;59.850;10.660;2023-05-13T17:43:06;5.80;;;2.40;;
8982;SDS011;20979;59.850;10.660;2023-05-13T17:45:49;8.38;;;2.35;;
8982;SDS011;20979;59.850;10.660;2023-05-13T17:48:16;4.13;;;2.40;;
8982;SDS011;20979;59.850;10.660;2023-05-13T17:50:44;3.55;;;2.63;;
8982;SDS011;20979;59.850;10.660;2023-05-13T17:53:15;4.68;;;2.40;;
8982;SDS011;20979;59.850;10.660;2023-05-13T17:55:45;2.60;;;2.40;;
8982;SDS011;20979;59.850;10.660;2023-05-13T17:58:13;3.67;;;2.40;;
8982;SDS011;20979;59.850;10.660;2023-05-13T18:00:40;3.50;;;2.60;;
8982;SDS011;20979;59.850;10.660;2023-05-13T18:11:26;3.35;;;2.70;;
8982;SDS011;20979;59.850;10.660;2023-05-13T18:13:53;3.13;;;2.13;;
8982;SDS011;20979;59.850;10.660;2023-05-13T18:16:21;3.75;;;2.67;;
8982;SDS011;20979;59.850;10.660;2023-05-13T18:18:48;3.47;;;2.60;;
8982;SDS011;20979;59.850;10.660;2023-05-13T18:21:16;2.50;;;2.30;;
8982;SDS011;20979;59.850;10.660;2023-05-13T18:23:48;3.30;;;2.20;;
8982;SDS011;20979;59.850;10.660;2023-05-13T18:26:34;3.00;;;2.40;;
8982;SDS011;20979;59.850;10.660;2023-05-13T18:29:07;2.63;;;2.42;;
8982;SDS011;20979;59.850;10.660;2023-05-13T18:31:37;2.88;;;2.58;;
8982;SDS011;20979;59.850;10.660;2023-05-13T18:37:04;2.90;;;2.50;;
8982;SDS011;20979;59.850;10.660;2023-05-13T18:39:32;3.53;;;2.30;;
8982;SDS011;20979;59.850;10.660;2023-05-13T18:42:11;3.30;;;2.55;;
8982;SDS011;20979;59.850;10.660;2023-05-13T18:44:39;3.05;;;2.50;;
8982;SDS011;20979;59.850;10.660;2023-05-13T18:47:22;3.53;;;2.60;;
8982;SDS011;20979;59.850;10.660;2023-05-13T18:49:49;2.80;;;2.50;;
8982;SDS011;20979;59.850;10.660;2023-05-13T18:53:00;5.22;;;2.60;;
8982;SDS011;20979;59.850;10.660;2023-05-13T18:58:12;3.25;;;2.60;;
8982;SDS011;20979;59.850;10.660;2023-05-13T19:01:00;4.78;;;2.42;;
8982;SDS011;20979;59.850;10.660;2023-05-13T19:10:14;3.40;;;2.47;;
8982;SDS011;20979;59.850;10.660;2023-05-13T19:19:06;7.93;;;7.13;;
8982;SDS011;20979;59.850;10.660;2023-05-13T19:30:23;3.90;;;2.70;;
8982;SDS011;20979;59.850;10.660;2023-05-13T19:33:09;3.72;;;3.03;;
8982;SDS011;20979;59.850;10.660;2023-05-13T19:35:49;3.03;;;2.72;;
8982;SDS011;20979;59.850;10.660;2023-05-13T19:47:48;3.47;;;3.15;;
8982;SDS011;20979;59.850;10.660;2023-05-13T19:59:45;4.17;;;3.27;;
8982;SDS011;20979;59.850;10.660;2023-05-13T20:02:25;3.88;;;3.47;;
8982;SDS011;20979;59.850;10.660;2023-05-13T20:04:54;4.33;;;3.70;;
8982;SDS011;20979;59.850;10.660;2023-05-13T20:07:24;5.93;;;4.00;;
8982;SDS011;20979;59.850;10.660;2023-05-13T20:09:51;4.40;;;3.87;;
8982;SDS011;20979;59.850;10.660;2023-05-13T20:12:25;4.32;;;3.42;;
8982;SDS011;20979;59.850;10.660;2023-05-13T20:15:08;5.23;;;3.93;;
8982;SDS011;20979;59.850;10.660;2023-05-13T20:17:36;4.23;;;3.60;;
8982;SDS011;20979;59.850;10.660;2023-05-13T20:20:03;3.90;;;3.60;;
8982;SDS011;20979;59.850;10.660;2023-05-13T20:25:21;5.03;;;3.40;;
8982;SDS011;20979;59.850;10.660;2023-05-13T20:27:49;4.60;;;3.33;;
8982;SDS011;20979;59.850;10.660;2023-05-13T20:33:19;5.83;;;3.47;;
8982;SDS011;20979;59.850;10.660;2023-05-13T20:35:56;4.23;;;3.60;;
8982;SDS011;20979;59.850;10.660;2023-05-13T20:38:23;4.37;;;3.53;;
8982;SDS011;20979;59.850;10.660;2023-05-13T20:40:51;4.30;;;3.60;;
8982;SDS011;20979;59.850;10.660;2023-05-13T20:43:21;6.33;;;3.67;;
8982;SDS011;20979;59.850;10.660;2023-05-13T20:45:49;7.17;;;3.60;;
8982;SDS011;20979;59.850;10.660;2023-05-13T20:48:16;4.83;;;4.33;;
8982;SDS011;20979;59.850;10.660;2023-05-13T20:54:04;4.43;;;3.30;;
8982;SDS011;20979;59.850;10.660;2023-05-13T21:02:28;4.00;;;3.37;;
8982;SDS011;20979;59.850;10.660;2023-05-13T21:05:09;3.67;;;3.37;;
8982;SDS011;20979;59.850;10.660;2023-05-13T21:07:37;5.57;;;3.30;;
8982;SDS011;20979;59.850;10.660;2023-05-13T21:10:25;4.43;;;3.70;;
8982;SDS011;20979;59.850;10.660;2023-05-13T21:13:05;4.73;;;3.40;;
8982;SDS011;20979;59.850;10.660;2023-05-13T21:15:33;4.33;;;3.40;;
8982;SDS011;20979;59.850;10.660;2023-05-13T21:18:00;4.70;;;3.63;;
8982;SDS011;20979;59.850;10.660;2023-05-13T21:20:28;5.50;;;3.90;;
8982;SDS011;20979;59.850;10.660;2023-05-13T21:22:56;4.57;;;3.87;;
8982;SDS011;20979;59.850;10.660;2023-05-13T21:25:32;9.47;;;3.73;;
8982;SDS011;20979;59.850;10.660;2023-05-13T21:28:02;12.40;;;4.17;;
8982;SDS011;20979;59.850;10.660;2023-05-13T21:30:29;5.73;;;4.03;;
8982;SDS011;20979;59.850;10.660;2023-05-13T21:32:57;6.47;;;4.23;;
8982;SDS011;20979;59.850;10.660;2023-05-13T21:35:25;4.40;;;4.00;;
8982;SDS011;20979;59.850;10.660;2023-05-13T21:37:52;4.20;;;3.73;;
8982;SDS011;20979;59.850;10.660;2023-05-13T21:40:20;4.13;;;3.73;;
8982;SDS011;20979;59.850;10.660;2023-05-13T21:42:49;4.47;;;3.87;;
8982;SDS011;20979;59.850;10.660;2023-05-13T21:45:16;6.87;;;4.20;;
8982;SDS011;20979;59.850;10.660;2023-05-13T21:47:44;5.43;;;4.40;;
8982;SDS011;20979;59.850;10.660;2023-05-13T21:50:12;5.43;;;4.00;;
8982;SDS011;20979;59.850;10.660;2023-05-13T21:52:40;5.93;;;4.57;;
8982;SDS011;20979;59.850;10.660;2023-05-13T21:55:08;4.60;;;4.00;;
8982;SDS011;20979;59.850;10.660;2023-05-13T21:57:35;4.30;;;4.00;;
8982;SDS011;20979;59.850;10.660;2023-05-13T22:00:05;6.30;;;4.63;;
8982;SDS011;20979;59.850;10.660;2023-05-13T22:02:34;4.53;;;4.13;;
8982;SDS011;20979;59.850;10.660;2023-05-13T22:05:02;4.70;;;4.20;;
8982;SDS011;20979;59.850;10.660;2023-05-13T22:07:29;4.83;;;4.23;;
8982;SDS011;20979;59.850;10.660;2023-05-13T22:09:56;5.90;;;4.10;;
8982;SDS011;20979;59.850;10.660;2023-05-13T22:12:24;4.20;;;3.80;;
8982;SDS011;20979;59.850;10.660;2023-05-13T22:14:51;4.30;;;3.90;;
8982;SDS011;20979;59.850;10.660;2023-05-13T22:17:20;4.30;;;4.00;;
8982;SDS011;20979;59.850;10.660;2023-05-13T22:19:47;4.87;;;3.67;;
8982;SDS011;20979;59.850;10.660;2023-05-13T22:22:15;6.27;;;4.17;;
8982;SDS011;20979;59.850;10.660;2023-05-13T22:24:42;5.50;;;3.67;;
8982;SDS011;20979;59.850;10.660;2023-05-13T22:27:10;4.30;;;3.90;;
8982;SDS011;20979;59.850;10.660;2023-05-13T22:29:37;5.10;;;4.20;;
8982;SDS011;20979;59.850;10.660;2023-05-13T22:32:05;6.30;;;4.30;;
8982;SDS011;20979;59.850;10.660;2023-05-13T22:34:34;4.70;;;4.20;;
8982;SDS011;20979;59.850;10.660;2023-05-13T22:37:01;7.60;;;4.23;;
8982;SDS011;20979;59.850;10.660;2023-05-13T22:39:28;6.60;;;4.67;;
8982;SDS011;20979;59.850;10.660;2023-05-13T22:41:56;4.87;;;4.33;;
8982;SDS011;20979;59.850;10.660;2023-05-13T22:44:23;4.83;;;4.43;;
8982;SDS011;20979;59.850;10.660;2023-05-13T22:46:51;5.87;;;5.37;;
8982;SDS011;20979;59.850;10.660;2023-05-13T22:49:18;5.47;;;4.70;;
8982;SDS011;20979;59.850;10.660;2023-05-13T22:51:47;5.33;;;4.83;;
8982;SDS011;20979;59.850;10.660;2023-05-13T22:54:14;5.63;;;5.00;;
8982;SDS011;20979;59.850;10.660;2023-05-13T22:56:41;5.43;;;4.93;;
8982;SDS011;20979;59.850;10.660;2023-05-13T22:59:09;5.40;;;4.90;;
8982;SDS011;20979;59.850;10.660;2023-05-13T23:01:37;5.37;;;4.93;;
8982;SDS011;20979;59.850;10.660;2023-05-13T23:04:04;6.50;;;5.10;;
8982;SDS011;20979;59.850;10.660;2023-05-13T23:06:31;5.80;;;5.23;;
8982;SDS011;20979;59.850;10.660;2023-05-13T23:09:00;7.17;;;5.60;;
8982;SDS011;20979;59.850;10.660;2023-05-13T23:11:28;6.80;;;5.10;;
8982;SDS011;20979;59.850;10.660;2023-05-13T23:13:55;5.57;;;5.07;;
8982;SDS011;20979;59.850;10.660;2023-05-13T23:16:23;5.47;;;4.97;;
8982;SDS011;20979;59.850;10.660;2023-05-13T23:18:50;5.43;;;4.73;;
8982;SDS011;20979;59.850;10.660;2023-05-13T23:21:18;5.10;;;4.70;;
8982;SDS011;20979;59.850;10.660;2023-05-13T23:24:03;4.77;;;4.37;;
8982;SDS011;20979;59.850;10.660;2023-05-13T23:29:34;4.97;;;4.47;;
8982;SDS011;20979;59.850;10.660;2023-05-13T23:32:26;5.97;;;4.30;;
8982;SDS011;20979;59.850;10.660;2023-05-13T23:37:45;4.33;;;3.93;;
8982;SDS011;20979;59.850;10.660;2023-05-13T23:40:26;5.33;;;4.30;;
8982;SDS011;20979;59.850;10.660;2023-05-13T23:42:54;5.20;;;4.50;;
8982;SDS011;20979;59.850;10.660;2023-05-13T23:54:38;11.20;;;5.00;;
8982;SDS011;20979;59.850;10.660;2023-05-13T23:57:06;6.20;;;4.30;;
8982;SDS011;20979;59.850;10.660;2023-05-13T23:59:34;7.37;;;4.70;;
